Check out our new BloomSky Weather System.

Active alerts


No alerts


Thunder radar  blitzortung!


Rain radar more information rain snow radar


Visit our other weather sites:

Template documentation
and downloads

And another site



Weather Underground History page Text

Daily Summary for August 14, 2017 Units:  English    Metric   Both
« Previous Day
Next Day »
Daily Weekly Monthly Yearly Custom
  High: Low: Average:
Temperature: 96.8 °F 80.2 °F 87.8 °F
Dew Point: 80.6 °F 75.0 °F 77.9 °F
Humidity: 92 % 54 % 74 %
Wind Speed: 9.0 mph 0.0 mph 3.4 mph
Wind Gust: 15.0 mph - -
Wind:- - SSE
Pressure: 29.89 in 29.78 in -
Precipitation: 0.00 in    
Historical Graphs
 
 
Tabular Data for August 14, 2017
Time Temperature Dew Point Pressure Wind Wind Speed Wind Gust Humidity Rainfall Rate (Hourly)
00:00 83.5 °F 78.4 °F 29.85 in East 5.0 mph 10.0 mph 85 % 0.00 in
00:05 83.5 °F 78.8 °F 29.85 in South 2.0 mph 10.0 mph 86 % 0.00 in
00:10 83.3 °F 78.6 °F 29.85 in ESE 5.0 mph 10.0 mph 86 % 0.00 in
00:15 83.1 °F 78.4 °F 29.86 in SSE 2.0 mph 9.0 mph 86 % 0.00 in
00:20 83.1 °F 78.4 °F 29.86 in SSE 3.0 mph 11.0 mph 86 % 0.00 in
00:25 82.9 °F 78.6 °F 29.85 in SSE 3.0 mph 11.0 mph 87 % 0.00 in
00:30 82.8 °F 78.4 °F 29.86 in South 4.0 mph 11.0 mph 87 % 0.00 in
00:35 82.8 °F 78.4 °F 29.86 in South 3.0 mph 6.0 mph 87 % 0.00 in
00:40 82.8 °F 78.8 °F 29.86 in SSE 1.0 mph 6.0 mph 88 % 0.00 in
00:45 82.6 °F 78.6 °F 29.86 in South 3.0 mph 6.0 mph 88 % 0.00 in
00:50 82.6 °F 78.6 °F 29.86 in South 2.0 mph 6.0 mph 88 % 0.00 in
00:55 82.4 °F 78.4 °F 29.86 in South 3.0 mph 6.0 mph 88 % 0.00 in
01:00 82.4 °F 78.4 °F 29.86 in SE 1.0 mph 5.0 mph 88 % 0.00 in
01:05 82.2 °F 78.3 °F 29.86 in SSE 3.0 mph 5.0 mph 88 % 0.00 in
01:10 82.2 °F 78.3 °F 29.86 in SSE 2.0 mph 5.0 mph 88 % 0.00 in
01:15 82.2 °F 78.3 °F 29.86 in SE 5.0 mph 5.0 mph 88 % 0.00 in
01:20 82.2 °F 78.3 °F 29.86 in SSE 2.0 mph 6.0 mph 88 % 0.00 in
01:25 82.2 °F 78.3 °F 29.86 in SSE 3.0 mph 6.0 mph 88 % 0.00 in
01:30 82.2 °F 78.6 °F 29.86 in SE 3.0 mph 7.0 mph 89 % 0.00 in
01:35 82.2 °F 78.6 °F 29.86 in South 2.0 mph 7.0 mph 89 % 0.00 in
01:40 82.0 °F 78.4 °F 29.86 in SSW 3.0 mph 6.0 mph 89 % 0.00 in
01:45 82.0 °F 78.4 °F 29.86 in Calm   6.0 mph 89 % 0.00 in
01:50 82.0 °F 78.4 °F 29.87 in SSW 1.0 mph 4.0 mph 89 % 0.00 in
01:55 81.9 °F 78.3 °F 29.87 in Calm   4.0 mph 89 % 0.00 in
02:00 81.9 °F 78.3 °F 29.87 in Calm   4.0 mph 89 % 0.00 in
02:05 81.7 °F 78.1 °F 29.87 in SSW 2.0 mph 4.0 mph 89 % 0.00 in
02:10 81.7 °F 78.4 °F 29.87 in South 1.0 mph 3.0 mph 90 % 0.00 in
02:15 81.7 °F 78.4 °F 29.87 in Calm   3.0 mph 90 % 0.00 in
02:20 81.7 °F 78.4 °F 29.88 in South 2.0 mph 2.0 mph 90 % 0.00 in
02:25 81.7 °F 78.4 °F 29.87 in Calm   3.0 mph 90 % 0.00 in
02:30 81.7 °F 78.4 °F 29.88 in SSW 1.0 mph 3.0 mph 90 % 0.00 in
02:35 81.5 °F 78.3 °F 29.88 in South 1.0 mph 3.0 mph 90 % 0.00 in
02:40 81.5 °F 78.3 °F 29.88 in SSE 1.0 mph 4.0 mph 90 % 0.00 in
02:45 81.5 °F 78.3 °F 29.87 in South 1.0 mph 4.0 mph 90 % 0.00 in
02:50 81.5 °F 78.3 °F 29.87 in SE 1.0 mph 4.0 mph 90 % 0.00 in
02:55 81.3 °F 78.1 °F 29.87 in SE 2.0 mph 3.0 mph 90 % 0.00 in
03:00 81.3 °F 78.1 °F 29.87 in SSE 1.0 mph 3.0 mph 90 % 0.00 in
03:05 81.3 °F 78.1 °F 29.87 in SSE 2.0 mph 3.0 mph 90 % 0.00 in
03:10 81.3 °F 78.1 °F 29.87 in South 2.0 mph 3.0 mph 90 % 0.00 in
03:15 81.1 °F 77.9 °F 29.87 in South 1.0 mph 3.0 mph 90 % 0.00 in
03:20 81.1 °F 78.3 °F 29.87 in SSE 2.0 mph 4.0 mph 91 % 0.00 in
03:25 81.1 °F 78.3 °F 29.86 in SSE 5.0 mph 5.0 mph 91 % 0.00 in
03:30 81.1 °F 78.3 °F 29.86 in SSE 2.0 mph 6.0 mph 91 % 0.00 in
03:35 81.1 °F 78.3 °F 29.86 in SSE 3.0 mph 6.0 mph 91 % 0.00 in
03:40 81.1 °F 78.3 °F 29.86 in SSE 4.0 mph 6.0 mph 91 % 0.00 in
03:45 81.1 °F 77.9 °F 29.86 in SE 2.0 mph 5.0 mph 90 % 0.00 in
03:50 81.1 °F 77.9 °F 29.86 in South 1.0 mph 5.0 mph 90 % 0.00 in
03:55 81.1 °F 78.3 °F 29.86 in South 2.0 mph 5.0 mph 91 % 0.00 in
04:58 80.8 °F 77.9 °F 29.86 in ESE 1.0 mph 3.0 mph 91 % 0.00 in
05:03 80.4 °F 77.5 °F 29.86 in SSE 2.0 mph 4.0 mph 91 % 0.00 in
05:08 80.4 °F 77.9 °F 29.86 in SE 1.0 mph 4.0 mph 92 % 0.00 in
05:13 80.4 °F 77.9 °F 29.86 in South 2.0 mph 4.0 mph 92 % 0.00 in
05:18 80.4 °F 77.9 °F 29.86 in South 2.0 mph 4.0 mph 92 % 0.00 in
05:23 80.4 °F 77.9 °F 29.86 in SSE 1.0 mph 5.0 mph 92 % 0.00 in
05:28 80.4 °F 77.9 °F 29.86 in SSE 4.0 mph 5.0 mph 92 % 0.00 in
05:33 80.4 °F 77.9 °F 29.86 in SSW 3.0 mph 5.0 mph 92 % 0.00 in
05:38 80.4 °F 77.9 °F 29.86 in SSE 1.0 mph 4.0 mph 92 % 0.00 in
05:43 80.4 °F 77.9 °F 29.86 in South 3.0 mph 4.0 mph 92 % 0.00 in
05:48 80.4 °F 77.9 °F 29.86 in South 2.0 mph 5.0 mph 92 % 0.00 in
05:58 80.2 °F 77.7 °F 29.86 in SSE 2.0 mph 5.0 mph 92 % 0.00 in
06:03 80.2 °F 77.7 °F 29.86 in SSE 1.0 mph 5.0 mph 92 % 0.00 in
06:08 80.2 °F 77.7 °F 29.86 in SSE 2.0 mph 5.0 mph 92 % 0.00 in
06:13 80.2 °F 77.7 °F 29.86 in SSE 5.0 mph 5.0 mph 92 % 0.00 in
06:18 80.2 °F 77.7 °F 29.86 in SE 1.0 mph 6.0 mph 92 % 0.00 in
06:23 80.2 °F 77.7 °F 29.86 in Calm   6.0 mph 92 % 0.00 in
06:28 80.2 °F 77.7 °F 29.87 in SSW 3.0 mph 6.0 mph 92 % 0.00 in
06:33 80.2 °F 77.7 °F 29.87 in SE 3.0 mph 4.0 mph 92 % 0.00 in
06:38 80.2 °F 77.7 °F 29.86 in SE 1.0 mph 5.0 mph 92 % 0.00 in
06:43 80.2 °F 77.7 °F 29.86 in South 2.0 mph 5.0 mph 92 % 0.00 in
06:48 80.2 °F 77.7 °F 29.86 in SSE 3.0 mph 5.0 mph 92 % 0.00 in
06:53 80.2 °F 77.7 °F 29.86 in South 4.0 mph 5.0 mph 92 % 0.00 in
06:58 80.2 °F 77.7 °F 29.86 in SSE 1.0 mph 5.0 mph 92 % 0.00 in
07:03 80.2 °F 77.7 °F 29.86 in SSW 3.0 mph 5.0 mph 92 % 0.00 in
07:08 80.2 °F 77.7 °F 29.86 in SSE 1.0 mph 4.0 mph 92 % 0.00 in
07:13 80.2 °F 77.7 °F 29.86 in South 2.0 mph 3.0 mph 92 % 0.00 in
07:18 80.2 °F 77.7 °F 29.86 in Calm   4.0 mph 92 % 0.00 in
07:23 80.2 °F 77.7 °F 29.86 in South 1.0 mph 5.0 mph 92 % 0.00 in
07:28 80.4 °F 77.9 °F 29.86 in SSW 1.0 mph 5.0 mph 92 % 0.00 in
07:33 80.4 °F 77.9 °F 29.86 in Calm   5.0 mph 92 % 0.00 in
07:38 80.8 °F 78.3 °F 29.86 in South 2.0 mph 4.0 mph 92 % 0.00 in
07:43 81.0 °F 78.1 °F 29.86 in South 2.0 mph 5.0 mph 91 % 0.00 in
07:48 81.1 °F 78.3 °F 29.86 in SSE 3.0 mph 5.0 mph 91 % 0.00 in
07:53 81.3 °F 78.1 °F 29.86 in SE 3.0 mph 5.0 mph 90 % 0.00 in
07:58 81.7 °F 78.4 °F 29.87 in SSE 2.0 mph 5.0 mph 90 % 0.00 in
08:03 82.0 °F 78.4 °F 29.87 in South 4.0 mph 5.0 mph 89 % 0.00 in
08:08 82.6 °F 78.6 °F 29.87 in South 3.0 mph 6.0 mph 88 % 0.00 in
08:13 82.9 °F 79.0 °F 29.87 in SE 3.0 mph 6.0 mph 88 % 0.00 in
08:19 83.5 °F 79.2 °F 29.87 in SSE 5.0 mph 6.0 mph 87 % 0.00 in
08:24 83.8 °F 79.2 °F 29.87 in Calm   6.0 mph 86 % 0.00 in
08:29 84.6 °F 79.5 °F 29.88 in SSW 3.0 mph 6.0 mph 85 % 0.00 in
08:34 84.9 °F 79.5 °F 29.87 in SSE 4.0 mph 6.0 mph 84 % 0.00 in
08:39 85.6 °F 79.9 °F 29.88 in SSE 2.0 mph 6.0 mph 83 % 0.00 in
08:44 85.8 °F 79.7 °F 29.88 in SSW 3.0 mph 7.0 mph 82 % 0.00 in
08:49 86.2 °F 80.4 °F 29.88 in SSW 4.0 mph 9.0 mph 83 % 0.00 in
08:54 86.4 °F 79.5 °F 29.88 in SW 3.0 mph 9.0 mph 80 % 0.00 in
08:59 86.4 °F 79.5 °F 29.88 in WSW 4.0 mph 9.0 mph 80 % 0.00 in
09:04 86.5 °F 79.2 °F 29.88 in SSE 4.0 mph 9.0 mph 79 % 0.00 in
09:09 86.5 °F 78.8 °F 29.88 in South 7.0 mph 9.0 mph 78 % 0.00 in
09:14 86.7 °F 79.9 °F 29.88 in WNW 3.0 mph 13.0 mph 80 % 0.00 in
09:19 86.9 °F 78.8 °F 29.88 in SSW 7.0 mph 13.0 mph 77 % 0.00 in
09:24 86.9 °F 79.2 °F 29.88 in SSW 3.0 mph 14.0 mph 78 % 0.00 in
09:29 87.4 °F 79.3 °F 29.88 in SSW 3.0 mph 14.0 mph 77 % 0.00 in
09:34 87.6 °F 79.5 °F 29.88 in SW 4.0 mph 14.0 mph 77 % 0.00 in
09:39 88.0 °F 79.9 °F 29.88 in SSW 9.0 mph 12.0 mph 77 % 0.00 in
09:44 87.6 °F 78.6 °F 29.89 in South 5.0 mph 12.0 mph 75 % 0.00 in
09:49 87.4 °F 78.6 °F 29.89 in SSE 5.0 mph 10.0 mph 75 % 0.00 in
09:54 88.0 °F 79.5 °F 29.89 in SSW 7.0 mph 11.0 mph 76 % 0.00 in
09:59 88.5 °F 79.5 °F 29.89 in SSW 3.0 mph 12.0 mph 75 % 0.00 in
10:04 88.9 °F 79.5 °F 29.89 in South 2.0 mph 12.0 mph 74 % 0.00 in
10:09 88.5 °F 79.2 °F 29.89 in South 6.0 mph 12.0 mph 74 % 0.00 in
10:14 88.9 °F 79.9 °F 29.89 in SW 2.0 mph 11.0 mph 75 % 0.00 in
10:19 89.4 °F 79.7 °F 29.89 in SSW 4.0 mph 9.0 mph 73 % 0.00 in
10:24 89.6 °F 79.3 °F 29.88 in SSE 3.0 mph 9.0 mph 72 % 0.00 in
10:29 89.8 °F 79.5 °F 29.89 in South 6.0 mph 10.0 mph 72 % 0.00 in
10:34 90.1 °F 80.2 °F 29.89 in SSW 5.0 mph 12.0 mph 73 % 0.00 in
10:39 90.7 °F 79.2 °F 29.89 in SE 4.0 mph 12.0 mph 69 % 0.00 in
10:44 90.9 °F 78.8 °F 29.89 in SSW 1.0 mph 12.0 mph 68 % 0.00 in
10:49 90.9 °F 77.9 °F 29.89 in South 4.0 mph 8.0 mph 66 % 0.00 in
10:54 90.1 °F 77.7 °F 29.89 in South 5.0 mph 9.0 mph 67 % 0.00 in
10:59 90.0 °F 77.9 °F 29.89 in SSW 3.0 mph 12.0 mph 68 % 0.00 in
11:04 90.1 °F 78.1 °F 29.89 in South 3.0 mph 12.0 mph 68 % 0.00 in
11:09 90.7 °F 79.2 °F 29.89 in SSW 5.0 mph 12.0 mph 69 % 0.00 in
11:14 90.9 °F 78.8 °F 29.89 in SW 2.0 mph 9.0 mph 68 % 0.00 in
11:19 91.2 °F 77.7 °F 29.89 in WSW 3.0 mph 10.0 mph 65 % 0.00 in
11:24 91.9 °F 79.9 °F 29.89 in South 6.0 mph 10.0 mph 68 % 0.00 in
11:29 91.9 °F 79.9 °F 29.89 in SSE 6.0 mph 10.0 mph 68 % 0.00 in
11:34 92.1 °F 79.2 °F 29.88 in SW 2.0 mph 10.0 mph 66 % 0.00 in
11:39 92.1 °F 79.5 °F 29.88 in NNW 2.0 mph 9.0 mph 67 % 0.00 in
11:44 92.8 °F 79.9 °F 29.88 in South 2.0 mph 9.0 mph 66 % 0.00 in
11:49 93.2 °F 79.7 °F 29.88 in South 1.0 mph 8.0 mph 65 % 0.00 in
11:54 93.2 °F 80.6 °F 29.88 in South 5.0 mph 6.0 mph 67 % 0.00 in
11:59 93.4 °F 79.9 °F 29.88 in SSW 5.0 mph 5.0 mph 65 % 0.00 in
12:04 93.4 °F 78.8 °F 29.88 in SSW 3.0 mph 6.0 mph 63 % 0.00 in
12:14 93.2 °F 79.2 °F 29.87 in SE 2.0 mph 9.0 mph 64 % 0.00 in
12:19 93.2 °F 78.3 °F 29.87 in ESE 7.0 mph 12.0 mph 62 % 0.00 in
12:24 93.4 °F 78.4 °F 29.87 in SSE 5.0 mph 12.0 mph 62 % 0.00 in
12:29 93.7 °F 78.3 °F 29.87 in SE 3.0 mph 12.0 mph 61 % 0.00 in
12:34 94.3 °F 77.2 °F 29.87 in SSE 4.0 mph 11.0 mph 58 % 0.00 in
12:39 94.5 °F 80.4 °F 29.87 in SW 2.0 mph 10.0 mph 64 % 0.00 in
12:44 94.8 °F 80.2 °F 29.86 in SSW 4.0 mph 12.0 mph 63 % 0.00 in
12:49 95.4 °F 79.7 °F 29.86 in NW 1.0 mph 12.0 mph 61 % 0.00 in
12:54 96.1 °F 80.4 °F 29.86 in SSE 1.0 mph 12.0 mph 61 % 0.00 in
12:59 96.1 °F 79.3 °F 29.86 in South 5.0 mph 9.0 mph 59 % 0.00 in
13:04 95.7 °F 77.5 °F 29.86 in SE 2.0 mph 6.0 mph 56 % 0.00 in
13:10 95.5 °F 79.3 °F 29.86 in SSW 7.0 mph 8.0 mph 60 % 0.00 in
13:15 95.2 °F 77.0 °F 29.85 in East 1.0 mph 8.0 mph 56 % 0.00 in
13:20 95.4 °F 79.3 °F 29.85 in SSW 4.0 mph 8.0 mph 60 % 0.00 in
13:25 95.5 °F 79.0 °F 29.85 in SSE 6.0 mph 8.0 mph 59 % 0.00 in
13:30 95.4 °F 77.2 °F 29.85 in SW 2.0 mph 8.0 mph 56 % 0.00 in
13:35 95.5 °F 78.4 °F 29.84 in SE 1.0 mph 8.0 mph 58 % 0.00 in
13:40 95.5 °F 77.9 °F 29.84 in ESE 8.0 mph 8.0 mph 57 % 0.00 in
13:45 94.8 °F 78.3 °F 29.84 in SSW 4.0 mph 9.0 mph 59 % 0.00 in
13:50 94.5 °F 78.4 °F 29.84 in Calm   9.0 mph 60 % 0.00 in
13:55 95.0 °F 78.4 °F 29.83 in SE 2.0 mph 7.0 mph 59 % 0.00 in
14:00 96.1 °F 79.0 °F 29.83 in SSE 2.0 mph 7.0 mph 58 % 0.00 in
14:05 96.8 °F 80.6 °F 29.83 in South 1.0 mph 7.0 mph 60 % 0.00 in
14:10 96.8 °F 78.4 °F 29.83 in South 3.0 mph 7.0 mph 56 % 0.00 in
14:15 96.3 °F 78.1 °F 29.83 in ENE 1.0 mph 7.0 mph 56 % 0.00 in
14:20 95.7 °F 78.6 °F 29.83 in SSE 2.0 mph 7.0 mph 58 % 0.00 in
14:25 96.1 °F 79.9 °F 29.83 in SSW 2.0 mph 8.0 mph 60 % 0.00 in
14:30 96.3 °F 77.5 °F 29.82 in SE 1.0 mph 8.0 mph 55 % 0.00 in
14:35 95.9 °F 77.7 °F 29.82 in SSW 2.0 mph 6.0 mph 56 % 0.00 in
14:40 95.7 °F 78.1 °F 29.82 in SSE 3.0 mph 8.0 mph 57 % 0.00 in
14:45 96.3 °F 77.5 °F 29.82 in SSE 5.0 mph 8.0 mph 55 % 0.00 in
14:50 96.4 °F 78.1 °F 29.81 in ESE 8.0 mph 8.0 mph 56 % 0.00 in
14:55 96.4 °F 77.0 °F 29.81 in SSE 8.0 mph 10.0 mph 54 % 0.00 in
15:00 96.4 °F 78.1 °F 29.81 in SE 4.0 mph 11.0 mph 56 % 0.00 in
15:05 96.3 °F 76.8 °F 29.81 in SSE 6.0 mph 11.0 mph 54 % 0.00 in
15:10 95.5 °F 77.9 °F 29.81 in SSW 2.0 mph 11.0 mph 57 % 0.00 in
15:15 95.2 °F 78.1 °F 29.80 in SSE 5.0 mph 10.0 mph 58 % 0.00 in
15:20 95.0 °F 77.4 °F 29.80 in SE 7.0 mph 10.0 mph 57 % 0.00 in
15:25 95.2 °F 78.1 °F 29.80 in SE 2.0 mph 10.0 mph 58 % 0.00 in
15:30 94.8 °F 77.7 °F 29.80 in SE 5.0 mph 11.0 mph 58 % 0.00 in
15:35 94.6 °F 77.5 °F 29.80 in ESE 3.0 mph 11.0 mph 58 % 0.00 in
15:41 94.6 °F 78.6 °F 29.79 in ESE 2.0 mph 11.0 mph 60 % 0.00 in
15:46 94.5 °F 77.9 °F 29.79 in SW 3.0 mph 9.0 mph 59 % 0.00 in
15:51 94.3 °F 77.7 °F 29.79 in SSE 4.0 mph 8.0 mph 59 % 0.00 in
15:56 94.3 °F 78.8 °F 29.79 in South 7.0 mph 8.0 mph 61 % 0.00 in
16:01 94.5 °F 77.9 °F 29.79 in SSE 5.0 mph 9.0 mph 59 % 0.00 in
16:06 94.5 °F 77.9 °F 29.79 in ESE 7.0 mph 9.0 mph 59 % 0.00 in
16:11 94.3 °F 77.7 °F 29.79 in SE 6.0 mph 10.0 mph 59 % 0.00 in
16:16 94.1 °F 77.5 °F 29.79 in SSE 6.0 mph 10.0 mph 59 % 0.00 in
16:21 93.9 °F 78.4 °F 29.79 in SE 5.0 mph 10.0 mph 61 % 0.00 in
16:26 94.1 °F 78.1 °F 29.78 in East 6.0 mph 10.0 mph 60 % 0.00 in
16:31 94.6 °F 77.5 °F 29.78 in South 4.0 mph 10.0 mph 58 % 0.00 in
16:36 94.6 °F 77.5 °F 29.78 in SE 3.0 mph 8.0 mph 58 % 0.00 in
16:41 94.3 °F 77.7 °F 29.78 in East 5.0 mph 8.0 mph 59 % 0.00 in
16:46 94.1 °F 78.6 °F 29.78 in SSW 1.0 mph 7.0 mph 61 % 0.00 in
16:51 94.1 °F 78.1 °F 29.78 in SSE 6.0 mph 6.0 mph 60 % 0.00 in
16:56 94.1 °F 78.1 °F 29.78 in SSW 6.0 mph 7.0 mph 60 % 0.00 in
17:01 93.9 °F 79.0 °F 29.78 in SSE 4.0 mph 8.0 mph 62 % 0.00 in
17:06 94.3 °F 78.8 °F 29.78 in ESE 3.0 mph 8.0 mph 61 % 0.00 in
17:11 94.3 °F 78.3 °F 29.78 in SE 3.0 mph 9.0 mph 60 % 0.00 in
17:12 94.1 °F 78.1 °F 29.78 in South 4.0 mph 9.0 mph 60 % 0.00 in
17:17 94.1 °F 78.1 °F 29.78 in South 4.0 mph 9.0 mph 60 % 0.00 in
17:22 94.3 °F 78.3 °F 29.78 in SSW 5.0 mph 9.0 mph 60 % 0.00 in
17:27 94.3 °F 77.7 °F 29.78 in SSW 4.0 mph 7.0 mph 59 % 0.00 in
17:32 93.7 °F 77.7 °F 29.78 in SE 3.0 mph 7.0 mph 60 % 0.00 in
17:37 93.4 °F 77.9 °F 29.78 in South 5.0 mph 7.0 mph 61 % 0.00 in
17:42 93.0 °F 77.5 °F 29.78 in South 5.0 mph 7.0 mph 61 % 0.00 in
17:47 93.2 °F 77.7 °F 29.78 in SE 5.0 mph 7.0 mph 61 % 0.00 in
17:52 93.9 °F 77.9 °F 29.78 in SSE 2.0 mph 7.0 mph 60 % 0.00 in
17:57 94.3 °F 78.3 °F 29.78 in SSE 5.0 mph 7.0 mph 60 % 0.00 in
18:02 94.3 °F 77.7 °F 29.78 in SSW 2.0 mph 7.0 mph 59 % 0.00 in
18:07 94.3 °F 77.7 °F 29.78 in South 4.0 mph 7.0 mph 59 % 0.00 in
18:12 94.5 °F 77.9 °F 29.78 in ESE 5.0 mph 8.0 mph 59 % 0.00 in
18:17 94.6 °F 77.5 °F 29.78 in South 4.0 mph 8.0 mph 58 % 0.00 in
18:22 94.3 °F 77.2 °F 29.78 in South 4.0 mph 10.0 mph 58 % 0.00 in
18:27 93.9 °F 76.8 °F 29.78 in South 4.0 mph 10.0 mph 58 % 0.00 in
18:32 93.7 °F 76.6 °F 29.78 in SE 8.0 mph 10.0 mph 58 % 0.00 in
18:37 93.9 °F 77.4 °F 29.78 in SSW 1.0 mph 11.0 mph 59 % 0.00 in
18:42 93.6 °F 77.0 °F 29.78 in SE 5.0 mph 11.0 mph 59 % 0.00 in
18:47 93.4 °F 76.8 °F 29.78 in SSE 7.0 mph 11.0 mph 59 % 0.00 in
18:52 92.8 °F 76.5 °F 29.78 in SE 5.0 mph 11.0 mph 59 % 0.00 in
18:57 92.7 °F 76.8 °F 29.78 in SSE 6.0 mph 11.0 mph 60 % 0.00 in
19:02 92.5 °F 76.6 °F 29.78 in South 4.0 mph 11.0 mph 60 % 0.00 in
19:07 92.7 °F 76.8 °F 29.78 in SSW 4.0 mph 8.0 mph 60 % 0.00 in
19:13 92.7 °F 76.8 °F 29.78 in SSE 3.0 mph 8.0 mph 60 % 0.00 in
19:18 92.5 °F 77.0 °F 29.79 in ESE 3.0 mph 8.0 mph 61 % 0.00 in
19:23 92.1 °F 76.6 °F 29.78 in SSE 4.0 mph 8.0 mph 61 % 0.00 in
19:28 91.9 °F 76.1 °F 29.78 in SSE 5.0 mph 9.0 mph 60 % 0.00 in
19:33 91.6 °F 76.3 °F 29.78 in SSW 4.0 mph 13.0 mph 61 % 0.00 in
19:38 91.2 °F 75.9 °F 29.78 in SSE 9.0 mph 13.0 mph 61 % 0.00 in
19:43 91.0 °F 75.7 °F 29.79 in SSW 6.0 mph 13.0 mph 61 % 0.00 in
19:48 90.9 °F 76.1 °F 29.79 in ESE 5.0 mph 12.0 mph 62 % 0.00 in
19:53 90.7 °F 75.9 °F 29.80 in SSE 7.0 mph 12.0 mph 62 % 0.00 in
19:58 90.3 °F 75.9 °F 29.80 in ESE 5.0 mph 12.0 mph 63 % 0.00 in
20:03 90.1 °F 75.9 °F 29.80 in SSE 6.0 mph 15.0 mph 63 % 0.00 in
20:08 90.0 °F 75.7 °F 29.80 in ESE 6.0 mph 15.0 mph 63 % 0.00 in
20:13 89.8 °F 75.9 °F 29.80 in South 8.0 mph 15.0 mph 64 % 0.00 in
20:18 89.4 °F 75.2 °F 29.80 in South 8.0 mph 14.0 mph 63 % 0.00 in
20:23 89.2 °F 75.0 °F 29.80 in SSE 7.0 mph 13.0 mph 63 % 0.00 in
20:28 89.1 °F 75.2 °F 29.80 in South 6.0 mph 13.0 mph 64 % 0.00 in
20:33 88.9 °F 75.6 °F 29.81 in South 6.0 mph 13.0 mph 65 % 0.00 in
20:38 88.5 °F 75.7 °F 29.81 in East 6.0 mph 11.0 mph 66 % 0.00 in
20:43 88.3 °F 76.8 °F 29.81 in SE 3.0 mph 11.0 mph 69 % 0.00 in
20:48 88.2 °F 77.2 °F 29.81 in SE 4.0 mph 11.0 mph 70 % 0.00 in
20:53 88.0 °F 77.4 °F 29.81 in SSW 7.0 mph 11.0 mph 71 % 0.00 in
20:58 87.6 °F 77.0 °F 29.81 in ESE 6.0 mph 12.0 mph 71 % 0.00 in
21:03 87.4 °F 77.4 °F 29.81 in South 9.0 mph 12.0 mph 72 % 0.00 in
21:08 87.3 °F 77.2 °F 29.81 in SSE 3.0 mph 14.0 mph 72 % 0.00 in
21:13 87.1 °F 77.0 °F 29.82 in SSE 3.0 mph 14.0 mph 72 % 0.00 in
21:18 86.9 °F 76.8 °F 29.82 in SSW 2.0 mph 14.0 mph 72 % 0.00 in
21:23 86.7 °F 77.0 °F 29.82 in SE 5.0 mph 9.0 mph 73 % 0.00 in
21:28 86.5 °F 77.2 °F 29.83 in SSE 6.0 mph 9.0 mph 74 % 0.00 in
21:33 86.4 °F 77.0 °F 29.83 in South 4.0 mph 9.0 mph 74 % 0.00 in
21:38 86.0 °F 77.2 °F 29.83 in ESE 3.0 mph 9.0 mph 75 % 0.00 in
21:43 85.8 °F 77.0 °F 29.83 in ESE 4.0 mph 10.0 mph 75 % 0.00 in
21:48 85.6 °F 77.2 °F 29.83 in SSE 3.0 mph 11.0 mph 76 % 0.00 in
21:53 85.5 °F 77.0 °F 29.84 in SE 5.0 mph 11.0 mph 76 % 0.00 in
21:58 85.5 °F 77.0 °F 29.84 in SE 4.0 mph 11.0 mph 76 % 0.00 in
22:03 85.3 °F 76.8 °F 29.84 in SE 6.0 mph 9.0 mph 76 % 0.00 in
22:08 84.9 °F 76.5 °F 29.84 in SE 4.0 mph 9.0 mph 76 % 0.00 in
22:13 84.9 °F 76.5 °F 29.84 in SE 3.0 mph 9.0 mph 76 % 0.00 in
22:15 84.7 °F 76.3 °F 29.84 in SE 3.0 mph 8.0 mph 76 % 0.00 in
22:20 84.7 °F 76.3 °F 29.84 in SE 5.0 mph 8.0 mph 76 % 0.00 in
22:23 84.7 °F 76.3 °F 29.84 in SSE 3.0 mph 8.0 mph 76 % 0.00 in
22:28 84.6 °F 76.1 °F 29.84 in SSE 2.0 mph 7.0 mph 76 % 0.00 in
22:29 84.6 °F 76.5 °F 29.84 in Calm   7.0 mph 77 % 0.00 in
22:34 84.4 °F 75.9 °F 29.84 in SSE 2.0 mph 7.0 mph 76 % 0.00 in
22:39 84.0 °F 76.1 °F 29.84 in SSE 2.0 mph 7.0 mph 77 % 0.00 in
22:44 84.0 °F 76.1 °F 29.84 in SSE 4.0 mph 7.0 mph 77 % 0.00 in
22:49 83.8 °F 75.9 °F 29.85 in SE 2.0 mph 7.0 mph 77 % 0.00 in
22:54 83.7 °F 75.7 °F 29.85 in South 4.0 mph 7.0 mph 77 % 0.00 in
22:59 83.7 °F 75.7 °F 29.85 in SSW 2.0 mph 7.0 mph 77 % 0.00 in
23:04 83.7 °F 75.7 °F 29.85 in SE 4.0 mph 7.0 mph 77 % 0.00 in
23:09 83.5 °F 75.6 °F 29.85 in SE 1.0 mph 7.0 mph 77 % 0.00 in
23:14 83.5 °F 75.9 °F 29.85 in SE 2.0 mph 7.0 mph 78 % 0.00 in
23:19 83.3 °F 75.7 °F 29.85 in SSW 3.0 mph 7.0 mph 78 % 0.00 in
23:24 83.1 °F 75.9 °F 29.85 in SSE 2.0 mph 5.0 mph 79 % 0.00 in
23:29 83.1 °F 75.9 °F 29.84 in SE 4.0 mph 5.0 mph 79 % 0.00 in
23:34 82.9 °F 76.1 °F 29.85 in SE 2.0 mph 5.0 mph 80 % 0.00 in
23:39 82.9 °F 76.1 °F 29.84 in South 4.0 mph 5.0 mph 80 % 0.00 in
23:44 82.8 °F 76.3 °F 29.85 in SSE 4.0 mph 5.0 mph 81 % 0.00 in
23:49 82.8 °F 76.3 °F 29.85 in South 4.0 mph 5.0 mph 81 % 0.00 in
23:54 82.8 °F 76.3 °F 29.85 in South 3.0 mph 5.0 mph 81 % 0.00 in
23:59 82.6 °F 76.5 °F 29.85 in South 3.0 mph 5.0 mph 82 % 0.00 in
Spring, Texas: Villages of Bridgestone
Compliments of Weather Underground - 2.75 mb

Script developed by  Jim McMurry - jmcmurry@mwt.net Adapted for the template by  Wim van der Kuil - Leuven-Template.eu

You find our weather info also at:

UK Metoffice

WeatherCloud

Weather Underground

Mid-South Weather Network

AWEKAS

Citizen Weather Observer Program (CWOP)

HAMweather, WeatherForYou, PWS Weather

Equipment we use:

Weather-station
Davis Vantage Vue

Weather-program
Meteohub

Weather-server
Debian 7.9 x86 (Guest)

Provider
DreamHost

Davis Vantage Vue

Meteohub

Debian 7.9 x86 (Guest)

DreamHost